Terminal Aerodrome Forecast
Issued by NWS

Home | Current Version | Previous Version | Graphics & Text | Print | Product List | Glossary On
Versions: 1 2 3 4 5 6 7 8 9 10 11 12 13 14 15 16 17 18
000
FTUS43 KFGF 271100
TAFBJI
TAF
KBJI 271124Z 2712/2812 VRB03KT 3SM BR FEW005
      TEMPO 2712/2713 1/2SM FG VV002
     FM271400 19005KT P6SM SKC
     FM280100 VRB03KT P6SM SKC=

USA.gov is the U.S. government's official web portal to all federal, state and local government web resources and services.